Time;durP1;ratioP1;P1;durP2;ratioP2;P2;SDS_P1;SDS_P2;PMS_P1;PMS_P2;Temp;Humidity;BMP_temperature;BMP_pressure;BME280_temperature;BME280_humidity;BME280_pressure;Samples;Min_cycle;Max_cycle;Signal;HPM_P1;HPM_P2
2023/01/24 00:01:20;;;;;;;0.10;0.10;;;1.80;99.90;12.80;163505.00;;;;4996414;28;20204;-78
2023/01/24 00:03:48;;;;;;;0.10;0.10;;;1.90;99.90;12.80;163505.00;;;;4992736;28;20200;-76
2023/01/24 00:06:17;;;;;;;0.10;0.10;;;1.90;99.90;12.80;163505.00;;;;4993419;28;20711;-77
2023/01/24 00:08:45;;;;;;;0.10;0.10;;;1.90;99.90;12.80;163505.00;;;;4993137;28;20719;-78
2023/01/24 00:11:14;;;;;;;0.10;0.10;;;1.90;99.90;12.80;163505.00;;;;4994094;28;20685;-77
2023/01/24 00:13:41;;;;;;;0.10;0.10;;;1.90;99.90;12.80;163505.00;;;;4993201;28;20212;-77
2023/01/24 00:16:14;;;;;;;0.10;0.10;;;1.90;99.90;12.80;163505.00;;;;4993764;28;20201;-77
2023/01/24 00:18:44;;;;;;;0.10;0.10;;;1.90;99.90;12.80;163505.00;;;;4983798;28;20622;-77
2023/01/24 00:21:16;;;;;;;0.10;0.10;;;1.90;99.90;12.80;163505.00;;;;4991822;28;20258;-77
2023/01/24 00:23:48;;;;;;;0.10;0.10;;;1.90;99.90;12.80;163505.00;;;;4987142;28;20213;-78
2023/01/24 00:26:18;;;;;;;0.10;0.10;;;1.90;99.90;12.80;163505.00;;;;4992129;28;20204;-76
2023/01/24 00:28:47;;;;;;;0.10;0.10;;;1.90;99.90;12.80;163505.00;;;;4990616;28;20712;-76
2023/01/24 00:31:16;;;;;;;0.10;0.10;;;1.90;99.90;12.80;163505.00;;;;4989920;28;20192;-76
2023/01/24 00:33:45;;;;;;;0.10;0.10;;;1.90;99.90;12.80;163505.00;;;;4972766;28;20238;-77
2023/01/24 00:36:14;;;;;;;0.10;0.10;;;1.90;99.90;12.80;163505.00;;;;4990426;28;20204;-76
2023/01/24 00:38:42;;;;;;;0.10;0.10;;;1.90;99.90;12.80;163505.00;;;;4965553;28;20295;-76
2023/01/24 00:41:10;;;;;;;0.08;0.08;;;1.90;99.90;12.80;163505.00;;;;4974930;28;20205;-78
2023/01/24 00:43:38;;;;;;;0.10;0.10;;;1.90;99.90;12.80;163505.00;;;;4975350;28;20196;-79
2023/01/24 00:46:07;;;;;;;0.10;0.10;;;1.90;99.90;12.80;163505.00;;;;4987959;28;20236;-78
2023/01/24 00:48:35;;;;;;;0.10;0.10;;;1.90;99.90;12.80;163505.00;;;;4985713;28;20235;-76
2023/01/24 00:51:05;;;;;;;0.10;0.10;;;1.90;99.90;12.80;163505.00;;;;4988779;28;20215;-76
2023/01/24 00:53:33;;;;;;;0.10;0.10;;;2.00;99.90;12.80;163505.00;;;;4992608;28;20204;-77
2023/01/24 00:56:02;;;;;;;0.10;0.10;;;2.00;99.90;12.80;163505.00;;;;4992426;28;20272;-77
2023/01/24 00:58:30;;;;;;;0.10;0.10;;;1.90;99.90;12.80;163505.00;;;;4986268;28;20641;-77
2023/01/24 01:01:00;;;;;;;0.10;0.10;;;1.90;99.90;12.80;163505.00;;;;4973611;28;20263;-72
2023/01/24 01:03:28;;;;;;;0.10;0.10;;;1.80;99.90;12.80;163505.00;;;;4966951;28;20259;-73
2023/01/24 01:06:00;;;;;;;0.10;0.10;;;1.90;99.90;12.80;163505.00;;;;4990970;28;20251;-73
2023/01/24 01:08:30;;;;;;;0.10;0.10;;;1.80;99.90;12.80;163505.00;;;;4967669;28;20220;-74
2023/01/24 01:10:59;;;;;;;0.10;0.10;;;1.90;99.90;12.80;163505.00;;;;4990517;28;20263;-74
2023/01/24 01:13:28;;;;;;;0.10;0.10;;;1.80;99.90;12.80;163505.00;;;;4970177;28;20247;-74
2023/01/24 01:16:02;;;;;;;0.10;0.10;;;1.90;99.90;12.80;163505.00;;;;4991281;28;20263;-73
2023/01/24 01:18:30;;;;;;;0.10;0.10;;;1.90;99.90;12.80;163505.00;;;;4972825;28;20689;-73
2023/01/24 01:20:58;;;;;;;0.10;0.10;;;1.80;99.90;12.80;163505.00;;;;4969141;28;20260;-73
2023/01/24 01:23:28;;;;;;;0.10;0.10;;;1.90;99.90;12.80;163505.00;;;;4971993;28;20744;-73
2023/01/24 01:26:00;;;;;;;0.10;0.10;;;1.90;99.90;12.80;163505.00;;;;4990839;28;20200;-73
2023/01/24 01:28:29;;;;;;;0.10;0.10;;;1.90;99.90;12.80;163505.00;;;;4988998;28;20219;-73
2023/01/24 01:30:58;;;;;;;0.13;0.13;;;1.90;99.90;12.80;163505.00;;;;4993424;28;20243;-74
2023/01/24 01:33:26;;;;;;;0.10;0.10;;;1.80;99.90;12.80;163505.00;;;;4976570;28;20208;-74
2023/01/24 01:35:54;;;;;;;0.10;0.10;;;1.80;99.90;12.80;163505.00;;;;4990091;28;20212;-74
2023/01/24 01:38:24;;;;;;;0.10;0.10;;;1.80;99.90;12.80;163505.00;;;;4991938;28;20238;-73
2023/01/24 01:40:52;;;;;;;0.10;0.10;;;1.80;99.90;12.80;163505.00;;;;4992813;28;20216;-74
2023/01/24 01:43:23;;;;;;;0.10;0.10;;;1.80;99.90;12.80;163505.00;;;;4994093;28;20189;-74
2023/01/24 01:45:54;;;;;;;0.10;0.10;;;1.80;99.90;12.80;163505.00;;;;4990350;28;20561;-73
2023/01/24 01:48:34;;;;;;;0.10;0.10;;;1.80;99.90;12.80;163505.00;;;;4968103;28;20228;-73
2023/01/24 01:51:12;;;;;;;0.10;0.10;;;1.80;99.90;12.80;163505.00;;;;4967720;28;20200;-73
2023/01/24 01:53:50;;;;;;;0.10;0.10;;;1.80;99.90;12.80;163505.00;;;;4968625;28;20565;-72
2023/01/24 01:56:27;;;;;;;0.10;0.10;;;1.80;99.90;12.80;163505.00;;;;4993519;28;20196;-73
2023/01/24 01:59:02;;;;;;;0.10;0.10;;;1.80;99.90;12.80;163505.00;;;;4991731;28;20478;-73
2023/01/24 02:01:31;;;;;;;0.10;0.10;;;1.80;99.90;12.80;163505.00;;;;4992717;28;20632;-73
2023/01/24 02:04:13;;;;;;;0.10;0.10;;;1.80;99.90;12.80;163505.00;;;;4975615;28;20196;-73
2023/01/24 02:06:53;;;;;;;0.10;0.10;;;1.80;99.90;12.80;163505.00;;;;4976095;28;20657;-73
2023/01/24 02:09:27;;;;;;;0.10;0.10;;;1.80;99.90;12.80;163505.00;;;;4993048;28;20227;-73
2023/01/24 02:12:01;;;;;;;0.10;0.10;;;1.80;99.90;12.80;163505.00;;;;4992969;28;20498;-74
2023/01/24 02:17:19;;;;;;;0.10;0.10;;;1.80;99.90;12.80;163505.00;;;;4993172;28;20564;-74
2023/01/24 02:20:32;;;;;;;0.10;0.10;;;1.80;99.90;12.80;163505.00;;;;4972277;28;20228;-74
2023/01/24 02:23:19;;;;;;;0.10;0.10;;;1.80;99.90;12.80;163505.00;;;;4983716;28;20617;-73
2023/01/24 02:26:00;;;;;;;0.10;0.10;;;1.80;99.90;12.80;163505.00;;;;4985250;28;20724;-73
2023/01/24 02:28:29;;;;;;;0.10;0.10;;;1.90;99.90;12.80;163505.00;;;;4991054;28;20236;-73
2023/01/24 02:30:57;;;;;;;0.10;0.10;;;1.80;99.90;12.80;163505.00;;;;4974988;28;20621;-73
2023/01/24 02:33:27;;;;;;;0.10;0.10;;;1.90;99.90;12.80;163505.00;;;;4992797;28;20228;-74
2023/01/24 02:36:15;;;;;;;0.10;0.10;;;1.80;99.90;12.80;163505.00;;;;4987823;28;20193;-73
2023/01/24 02:38:50;;;;;;;0.10;0.10;;;1.80;99.90;12.80;163505.00;;;;4969830;28;20246;-74
2023/01/24 02:41:25;;;;;;;0.10;0.10;;;1.80;99.90;12.80;163505.00;;;;4972887;28;20231;-72
2023/01/24 02:43:59;;;;;;;0.10;0.10;;;1.80;99.90;12.80;163505.00;;;;4993038;28;20195;-74
2023/01/24 02:46:30;;;;;;;0.10;0.10;;;1.80;99.90;12.80;163505.00;;;;4974709;28;20208;-73
2023/01/24 02:48:58;;;;;;;0.10;0.10;;;1.80;99.90;12.80;163505.00;;;;4974600;28;20255;-74
2023/01/24 02:54:11;;;;;;;0.10;0.10;;;1.90;99.90;12.80;163505.00;;;;4980039;28;20200;-74
2023/01/24 02:59:32;;;;;;;0.10;0.10;;;1.80;99.90;12.80;163505.00;;;;4928462;28;20236;-73
2023/01/24 03:02:01;;;;;;;0.10;0.10;;;1.90;99.90;12.80;163505.00;;;;4990972;28;20200;-73
2023/01/24 03:04:29;;;;;;;0.10;0.10;;;1.80;99.90;12.80;163505.00;;;;4992084;28;20452;-72
2023/01/24 03:06:57;;;;;;;0.10;0.10;;;1.80;99.90;12.80;163505.00;;;;4971073;28;20202;-73
2023/01/24 03:09:34;;;;;;;0.10;0.10;;;1.80;99.90;12.80;163505.00;;;;4991008;28;20570;-72
2023/01/24 03:34:32;;;;;;;0.10;0.10;;;1.80;99.90;12.80;163505.00;;;;4976431;28;20208;-73
2023/01/24 03:37:02;;;;;;;0.10;0.10;;;1.80;99.90;12.80;163505.00;;;;4975335;28;20204;-71
2023/01/24 03:42:17;;;;;;;0.10;0.10;;;1.90;99.90;12.80;163505.00;;;;5008634;28;20224;-72
2023/01/24 03:44:48;;;;;;;0.10;0.10;;;1.80;99.90;12.80;163505.00;;;;5005542;28;20884;-72
2023/01/24 03:47:16;;;;;;;0.10;0.10;;;1.80;99.90;12.80;163505.00;;;;4970539;28;20537;-73
2023/01/24 03:52:31;;;;;;;0.10;0.10;;;1.90;99.90;12.80;163505.00;;;;4973989;28;20291;-73
2023/01/24 03:55:07;;;;;;;0.10;0.10;;;1.90;99.90;12.80;163505.00;;;;4974330;28;20216;-73
2023/01/24 03:57:35;;;;;;;0.10;0.10;;;2.00;99.90;12.80;163505.00;;;;4964320;28;20204;-73
2023/01/24 04:00:11;;;;;;;0.10;0.10;;;1.90;99.90;12.80;163505.00;;;;4971753;28;20319;-72
2023/01/24 04:02:50;;;;;;;0.10;0.10;;;1.90;99.90;12.80;163505.00;;;;4979322;28;20216;-72
2023/01/24 04:05:22;;;;;;;0.10;0.10;;;1.90;99.90;12.80;163505.00;;;;4982263;28;20197;-72
2023/01/24 04:07:50;;;;;;;0.10;0.10;;;1.90;99.90;12.80;163505.00;;;;4970545;28;20201;-72
2023/01/24 04:10:21;;;;;;;0.10;0.10;;;1.90;99.90;12.80;163505.00;;;;4974352;28;20669;-72
2023/01/24 04:12:50;;;;;;;0.10;0.10;;;1.90;99.90;12.80;163505.00;;;;4974140;28;20192;-73
2023/01/24 04:15:23;;;;;;;0.10;0.10;;;1.90;99.90;12.80;163505.00;;;;4973913;28;20201;-73
2023/01/24 04:18:01;;;;;;;0.10;0.10;;;1.90;99.90;12.80;163505.00;;;;4972989;28;20603;-72
2023/01/24 04:20:32;;;;;;;0.10;0.10;;;2.00;99.90;12.80;163505.00;;;;4990542;28;20229;-73
2023/01/24 04:23:05;;;;;;;0.10;0.10;;;2.00;99.90;12.80;163505.00;;;;4967391;28;20576;-76
2023/01/24 04:25:35;;;;;;;0.10;0.10;;;1.90;99.90;12.80;163505.00;;;;4978360;28;20611;-77
2023/01/24 04:28:04;;;;;;;0.10;0.10;;;1.90;99.90;12.80;163505.00;;;;4971556;28;20751;-75
2023/01/24 04:30:36;;;;;;;0.03;0.03;;;2.00;99.90;12.80;163505.00;;;;4973091;28;20213;-76
2023/01/24 04:33:08;;;;;;;0.10;0.10;;;2.00;99.90;12.80;163505.00;;;;4974593;28;20295;-76
2023/01/24 04:35:36;;;;;;;0.10;0.10;;;1.90;99.90;12.80;163505.00;;;;4973098;28;20255;-76
2023/01/24 04:38:05;;;;;;;0.10;0.10;;;1.90;99.90;12.80;163505.00;;;;5001248;28;20621;-75
2023/01/24 04:40:58;;;;;;;0.10;0.10;;;1.90;99.90;12.80;163505.00;;;;4997028;28;20228;-77
2023/01/24 04:43:29;;;;;;;0.10;0.10;;;1.90;99.90;12.80;163505.00;;;;4992151;28;20198;-75
2023/01/24 04:45:59;;;;;;;0.10;0.10;;;1.90;99.90;12.80;163505.00;;;;4974319;28;20649;-74
2023/01/24 04:48:42;;;;;;;0.10;0.10;;;1.90;99.90;12.80;163505.00;;;;4986956;28;20660;-75
2023/01/24 04:51:10;;;;;;;0.10;0.10;;;1.90;99.90;12.80;163505.00;;;;4975641;28;20212;-76
2023/01/24 04:53:39;;;;;;;0.10;0.10;;;1.90;99.90;12.80;163505.00;;;;4993449;28;20199;-76
2023/01/24 04:56:08;;;;;;;0.10;0.10;;;2.00;99.90;12.80;163505.00;;;;4974357;28;20765;-75
2023/01/24 04:58:38;;;;;;;0.10;0.10;;;2.00;99.90;12.80;163505.00;;;;4970685;28;20220;-76
2023/01/24 05:01:08;;;;;;;0.10;0.10;;;2.00;99.90;12.80;163505.00;;;;4969089;28;20228;-75
2023/01/24 05:03:47;;;;;;;0.10;0.10;;;2.00;99.90;12.80;163505.00;;;;4995658;28;20190;-75
2023/01/24 05:06:15;;;;;;;0.10;0.10;;;2.00;99.90;12.80;163505.00;;;;4974578;28;20238;-76
2023/01/24 05:08:43;;;;;;;0.10;0.10;;;2.00;99.90;12.80;163505.00;;;;4977301;28;20220;-76
2023/01/24 05:11:11;;;;;;;0.10;0.10;;;2.10;99.90;12.80;163505.00;;;;4978234;28;20718;-76
2023/01/24 05:13:46;;;;;;;0.10;0.10;;;2.00;99.90;12.80;163505.00;;;;5010678;28;20204;-76
2023/01/24 05:16:16;;;;;;;0.10;0.10;;;2.00;99.90;12.80;163505.00;;;;4975853;28;20542;-75
2023/01/24 05:18:44;;;;;;;0.10;0.10;;;2.10;99.90;12.80;163505.00;;;;4974914;28;20220;-76
2023/01/24 05:21:15;;;;;;;0.10;0.10;;;2.00;99.90;12.80;163505.00;;;;4977482;28;20234;-76
2023/01/24 05:23:51;;;;;;;0.10;0.10;;;2.00;99.90;12.80;163505.00;;;;4971052;28;20235;-75
2023/01/24 05:26:22;;;;;;;0.10;0.10;;;2.00;99.90;12.80;163505.00;;;;4988905;28;20666;-76
2023/01/24 05:28:52;;;;;;;0.10;0.10;;;1.90;99.90;12.80;163505.00;;;;4979496;28;20224;-76
2023/01/24 05:31:22;;;;;;;0.10;0.10;;;2.00;99.90;12.80;163505.00;;;;4974406;28;20699;-76
2023/01/24 05:33:50;;;;;;;0.10;0.10;;;2.00;99.90;12.80;163505.00;;;;4977431;28;20201;-77
2023/01/24 05:36:23;;;;;;;0.10;0.10;;;2.00;99.90;12.80;163505.00;;;;4976868;28;20200;-77
2023/01/24 05:38:51;;;;;;;0.10;0.10;;;1.90;99.90;12.80;163505.00;;;;4976328;28;20227;-76
2023/01/24 05:41:21;;;;;;;0.10;0.10;;;1.90;99.90;12.80;163505.00;;;;4980307;28;20869;-77
2023/01/24 05:43:52;;;;;;;0.10;0.10;;;1.90;99.90;12.80;163505.00;;;;4977244;28;20259;-78
2023/01/24 05:46:28;;;;;;;0.10;0.10;;;1.90;99.90;12.80;163505.00;;;;4966518;28;20272;-77
2023/01/24 05:49:05;;;;;;;0.10;0.10;;;1.90;99.90;12.80;163505.00;;;;4980963;28;20220;-76
2023/01/24 05:51:33;;;;;;;0.10;0.10;;;2.00;99.90;12.80;163505.00;;;;4970133;28;20204;-76
2023/01/24 05:54:02;;;;;;;0.10;0.10;;;1.90;99.90;12.80;163505.00;;;;4973400;28;20673;-76
2023/01/24 05:56:51;;;;;;;0.00;0.00;;;1.90;99.90;12.80;163505.00;;;;4974221;28;20211;-77
2023/01/24 05:59:19;;;;;;;0.10;0.10;;;2.00;99.90;12.80;163505.00;;;;4976687;28;20232;-76
2023/01/24 06:01:48;;;;;;;0.10;0.10;;;2.00;99.90;12.80;163505.00;;;;4966320;28;20229;-76
2023/01/24 06:04:18;;;;;;;0.10;0.10;;;2.00;99.90;12.80;163505.00;;;;5003789;28;20239;-78
2023/01/24 06:06:48;;;;;;;0.10;0.10;;;2.00;99.90;12.80;163505.00;;;;4993125;28;20688;-77
2023/01/24 06:09:16;;;;;;;0.10;0.10;;;2.10;99.90;12.80;163505.00;;;;4991954;28;20208;-77
2023/01/24 06:11:44;;;;;;;0.10;0.10;;;2.10;99.90;12.80;163505.00;;;;4977999;28;20247;-77
2023/01/24 06:14:18;;;;;;;0.10;0.10;;;2.10;99.90;12.80;163505.00;;;;4977814;28;20670;-77
2023/01/24 06:16:48;;;;;;;0.10;0.10;;;2.10;99.90;12.80;163505.00;;;;4976137;28;20235;-78
2023/01/24 06:19:18;;;;;;;0.10;0.10;;;2.10;99.90;12.80;163505.00;;;;4978365;28;20224;-77
2023/01/24 06:21:50;;;;;;;0.10;0.10;;;2.10;99.90;12.80;163505.00;;;;4992904;28;20232;-76
2023/01/24 06:24:26;;;;;;;0.10;0.10;;;2.10;99.90;12.80;163505.00;;;;4979796;28;20205;-77
2023/01/24 06:27:10;;;;;;;0.10;0.10;;;2.10;99.90;12.80;163505.00;;;;4976417;28;20712;-76
2023/01/24 06:29:39;;;;;;;0.10;0.10;;;2.10;99.90;12.80;163505.00;;;;4993170;28;20589;-77
2023/01/24 06:32:28;;;;;;;0.10;0.10;;;2.10;99.90;12.80;163505.00;;;;4986676;28;20189;-77
2023/01/24 06:35:19;;;;;;;0.10;0.10;;;2.10;99.90;12.80;163505.00;;;;4993341;28;20193;-77
2023/01/24 06:37:51;;;;;;;0.10;0.10;;;2.10;99.90;12.80;163505.00;;;;4995232;28;20235;-77
2023/01/24 06:40:23;;;;;;;0.10;0.10;;;2.10;99.90;12.80;163505.00;;;;4988898;28;20632;-78
2023/01/24 06:42:52;;;;;;;0.10;0.10;;;2.10;99.90;12.80;163505.00;;;;4996995;28;20259;-78
2023/01/24 06:45:21;;;;;;;0.10;0.10;;;2.10;99.90;12.80;163505.00;;;;4992153;28;20208;-77
2023/01/24 06:47:51;;;;;;;0.10;0.10;;;2.10;99.90;12.80;163505.00;;;;4994667;28;20224;-78
2023/01/24 06:50:22;;;;;;;0.10;0.10;;;2.10;99.90;12.80;163505.00;;;;4995578;28;20251;-77
2023/01/24 06:52:52;;;;;;;0.10;0.10;;;2.10;99.90;12.80;163505.00;;;;4989676;28;20586;-77
2023/01/24 06:55:20;;;;;;;0.10;0.10;;;2.10;99.90;12.80;163505.00;;;;4969773;28;20745;-77
2023/01/24 06:57:55;;;;;;;0.10;0.10;;;2.10;99.90;12.80;163505.00;;;;4991141;28;20628;-77
2023/01/24 07:00:23;;;;;;;0.10;0.10;;;2.10;99.90;12.80;163505.00;;;;4990390;28;20224;-77
2023/01/24 07:03:00;;;;;;;0.10;0.10;;;2.10;99.90;12.80;163505.00;;;;4996090;28;20200;-78
2023/01/24 07:05:28;;;;;;;0.10;0.10;;;2.10;99.90;12.80;163505.00;;;;4978193;28;20715;-78
2023/01/24 07:07:56;;;;;;;0.10;0.10;;;2.10;99.90;12.80;163505.00;;;;4998082;28;20653;-78
2023/01/24 07:10:24;;;;;;;0.10;0.10;;;2.10;99.90;12.80;163505.00;;;;4991265;28;20231;-78
2023/01/24 07:12:52;;;;;;;0.10;0.10;;;2.10;99.90;12.80;163505.00;;;;4997122;28;20247;-78
2023/01/24 07:15:20;;;;;;;0.10;0.10;;;2.20;99.90;12.80;163505.00;;;;4996713;28;20208;-78
2023/01/24 07:17:50;;;;;;;0.10;0.10;;;2.10;99.90;12.80;163505.00;;;;4998196;28;20208;-78
2023/01/24 07:20:20;;;;;;;0.10;0.10;;;2.10;99.90;12.80;163505.00;;;;5001665;28;20287;-78
2023/01/24 07:22:50;;;;;;;0.10;0.10;;;2.10;99.90;12.80;163505.00;;;;4997750;28;20192;-77
2023/01/24 07:25:21;;;;;;;0.10;0.10;;;2.10;99.90;12.80;163505.00;;;;4997563;28;20200;-77
2023/01/24 07:27:51;;;;;;;0.10;0.10;;;2.10;99.90;12.80;163505.00;;;;4995884;28;20208;-77
2023/01/24 07:30:19;;;;;;;0.10;0.10;;;2.10;99.90;12.80;163505.00;;;;4989529;28;20267;-77
2023/01/24 07:32:47;;;;;;;0.10;0.10;;;2.20;99.90;12.80;163505.00;;;;4993643;28;20204;-77
2023/01/24 07:35:16;;;;;;;0.10;0.10;;;2.20;99.90;12.80;163505.00;;;;4993336;28;20645;-77
2023/01/24 07:37:46;;;;;;;0.10;0.10;;;2.20;99.90;12.80;163505.00;;;;4994670;28;20725;-77
2023/01/24 07:40:14;;;;;;;0.10;0.10;;;2.20;99.90;12.80;163505.00;;;;4995535;28;20609;-77
2023/01/24 07:42:42;;;;;;;0.10;0.10;;;2.10;99.90;12.80;163505.00;;;;4990913;28;20278;-77
2023/01/24 07:45:10;;;;;;;0.10;0.10;;;2.20;99.90;12.80;163505.00;;;;4993009;28;20200;-77
2023/01/24 07:47:39;;;;;;;0.10;0.10;;;2.20;99.90;12.80;163505.00;;;;4996217;28;20243;-77
2023/01/24 07:50:08;;;;;;;0.10;0.10;;;2.10;99.90;12.80;163505.00;;;;4981363;28;20216;-77
2023/01/24 07:52:36;;;;;;;0.10;0.10;;;2.10;99.90;12.80;163505.00;;;;4993249;28;20200;-77
2023/01/24 07:55:06;;;;;;;0.10;0.10;;;2.10;99.90;12.80;163505.00;;;;4996829;28;20227;-77
2023/01/24 07:57:34;;;;;;;0.10;0.10;;;2.10;99.90;12.80;163505.00;;;;4992806;28;20259;-78
2023/01/24 08:00:03;;;;;;;0.10;0.10;;;2.10;99.90;12.80;163505.00;;;;5002153;28;20228;-78
2023/01/24 08:02:38;;;;;;;0.10;0.10;;;2.10;99.90;12.80;163505.00;;;;5000189;28;20223;-78
2023/01/24 08:05:07;;;;;;;0.10;0.10;;;2.10;99.90;12.80;163505.00;;;;4993691;28;20209;-78
2023/01/24 08:07:35;;;;;;;0.10;0.10;;;2.20;99.90;12.80;163505.00;;;;4993893;28;20251;-77
2023/01/24 08:10:06;;;;;;;0.10;0.10;;;2.20;99.90;12.80;163505.00;;;;4993738;28;20807;-77
2023/01/24 08:12:34;;;;;;;0.10;0.10;;;2.20;99.90;12.80;163505.00;;;;4992428;28;20207;-77
2023/01/24 08:15:02;;;;;;;0.10;0.10;;;2.20;99.90;12.80;163505.00;;;;4993313;28;20196;-77
2023/01/24 08:17:30;;;;;;;0.10;0.10;;;2.20;99.90;12.80;163505.00;;;;4992405;28;20270;-77
2023/01/24 08:19:58;;;;;;;0.10;0.10;;;2.30;99.90;12.80;163505.00;;;;4993053;28;20216;-77
2023/01/24 08:22:26;;;;;;;0.10;0.10;;;2.20;99.90;12.80;163505.00;;;;4993126;28;20262;-77
2023/01/24 08:24:54;;;;;;;0.10;0.10;;;2.30;99.90;12.80;163505.00;;;;4992627;28;20200;-77
2023/01/24 08:27:23;;;;;;;0.10;0.10;;;2.30;99.90;12.80;163505.00;;;;4969610;28;20288;-77
2023/01/24 08:29:51;;;;;;;0.10;0.10;;;2.30;99.90;12.80;163505.00;;;;4992632;28;20609;-78
2023/01/24 08:32:19;;;;;;;0.10;0.10;;;2.30;99.90;12.80;163505.00;;;;4992244;28;20204;-77
2023/01/24 08:34:47;;;;;;;0.10;0.10;;;2.30;99.90;12.80;163505.00;;;;4992311;28;20197;-77
2023/01/24 08:37:16;;;;;;;0.10;0.10;;;2.30;99.90;12.80;163505.00;;;;4992560;28;20668;-77
2023/01/24 08:39:44;;;;;;;0.10;0.10;;;2.40;99.90;12.80;163505.00;;;;4996069;28;20211;-77
2023/01/24 08:42:12;;;;;;;0.10;0.10;;;2.40;99.90;12.80;163505.00;;;;4997132;28;20224;-78
2023/01/24 08:44:41;;;;;;;0.10;0.10;;;2.40;99.90;12.80;163505.00;;;;4987889;28;20251;-77
2023/01/24 08:47:09;;;;;;;0.10;0.10;;;2.40;99.90;12.80;163505.00;;;;4998777;28;20204;-78
2023/01/24 08:49:37;;;;;;;0.10;0.10;;;2.40;99.90;12.80;163505.00;;;;4997504;28;20216;-78
2023/01/24 08:52:05;;;;;;;0.10;0.10;;;2.40;99.90;12.80;163505.00;;;;4998725;28;20216;-78
2023/01/24 08:54:35;;;;;;;0.10;0.10;;;2.50;99.90;12.80;163505.00;;;;4997217;28;20665;-78
2023/01/24 08:57:04;;;;;;;0.10;0.10;;;2.40;99.90;12.80;163505.00;;;;4998094;28;20638;-78
2023/01/24 08:59:32;;;;;;;0.10;0.10;;;2.40;99.90;12.80;163505.00;;;;4996103;28;20240;-79
2023/01/24 09:02:01;;;;;;;0.10;0.10;;;2.40;99.90;12.80;163505.00;;;;4982903;28;20220;-78
2023/01/24 09:04:32;;;;;;;0.10;0.10;;;2.40;99.90;12.80;163505.00;;;;4999371;28;20236;-78
2023/01/24 09:07:00;;;;;;;0.10;0.10;;;2.40;99.90;12.80;163505.00;;;;4999462;28;20262;-77
2023/01/24 09:09:28;;;;;;;0.10;0.10;;;2.40;99.90;12.80;163505.00;;;;4997839;28;20565;-78
2023/01/24 09:11:56;;;;;;;0.10;0.10;;;2.40;99.90;12.80;163505.00;;;;4997140;28;20204;-78
2023/01/24 09:14:24;;;;;;;0.10;0.10;;;2.40;99.90;12.80;163505.00;;;;4988709;28;20208;-78
2023/01/24 09:16:52;;;;;;;0.10;0.10;;;2.40;99.90;12.80;163505.00;;;;4995905;28;20561;-78
2023/01/24 09:19:21;;;;;;;0.10;0.10;;;2.30;99.90;12.80;163505.00;;;;4996472;28;20285;-78
2023/01/24 09:21:51;;;;;;;0.10;0.10;;;2.40;99.90;12.80;163505.00;;;;4999374;28;20604;-78
2023/01/24 09:24:20;;;;;;;0.10;0.10;;;2.40;99.90;12.80;163505.00;;;;4984620;28;20696;-78
2023/01/24 09:26:48;;;;;;;0.10;0.10;;;2.40;99.90;12.80;163505.00;;;;4992214;28;20211;-78
2023/01/24 09:29:16;;;;;;;0.10;0.10;;;2.40;99.90;12.80;163505.00;;;;4997607;28;20232;-78
2023/01/24 09:31:44;;;;;;;0.10;0.10;;;2.40;99.90;12.80;163505.00;;;;4997594;28;20205;-77
2023/01/24 09:34:12;;;;;;;0.10;0.10;;;2.40;99.90;12.80;163505.00;;;;4989132;28;20197;-78
2023/01/24 09:36:42;;;;;;;0.10;0.10;;;2.40;99.90;12.80;163505.00;;;;4991346;28;20224;-78
2023/01/24 09:39:10;;;;;;;0.10;0.10;;;2.40;99.90;12.80;163505.00;;;;4999168;28;20275;-78
2023/01/24 09:41:52;;;;;;;0.10;0.10;;;2.40;99.90;12.80;163505.00;;;;4999353;28;20564;-78
2023/01/24 09:44:45;;;;;;;0.10;0.10;;;2.40;99.90;12.80;163505.00;;;;4999549;28;20207;-78
2023/01/24 09:47:22;;;;;;;0.10;0.10;;;2.40;99.90;12.80;163505.00;;;;5001203;28;20196;-78
2023/01/24 09:49:58;;;;;;;0.10;0.10;;;2.40;99.90;12.80;163505.00;;;;4994572;28;20227;-79
2023/01/24 09:52:35;;;;;;;0.10;0.10;;;2.40;99.90;12.80;163505.00;;;;5017962;28;20200;-78
2023/01/24 09:55:13;;;;;;;0.10;0.10;;;2.40;99.90;12.80;163505.00;;;;5012971;28;20204;-78
2023/01/24 09:57:52;;;;;;;0.10;0.10;;;2.30;99.90;12.80;163505.00;;;;5012296;28;20208;-77
2023/01/24 10:00:26;;;;;;;0.10;0.10;;;2.30;99.90;12.80;163505.00;;;;5010651;28;20232;-78
2023/01/24 10:02:57;;;;;;;0.10;0.10;;;2.40;99.90;12.80;163505.00;;;;4994521;28;20272;-78
2023/01/24 10:05:35;;;;;;;0.10;0.10;;;2.40;99.90;12.80;163505.00;;;;4992295;28;20697;-78
2023/01/24 10:08:20;;;;;;;0.10;0.10;;;2.40;99.90;12.80;163505.00;;;;4998898;28;20241;-77
2023/01/24 10:10:58;;;;;;;0.10;0.10;;;2.40;99.90;12.80;163505.00;;;;4989716;28;20670;-77
2023/01/24 10:13:59;;;;;;;0.10;0.10;;;2.40;99.90;12.80;163505.00;;;;4994910;28;20204;-77
2023/01/24 10:17:01;;;;;;;0.10;0.10;;;2.30;99.90;12.80;163505.00;;;;4994751;28;20203;-77
2023/01/24 10:20:00;;;;;;;0.10;0.10;;;2.30;99.90;12.80;163505.00;;;;4994815;28;20708;-77
2023/01/24 10:22:59;;;;;;;0.10;0.10;;;2.30;99.90;12.80;163505.00;;;;4994652;28;20730;-77
2023/01/24 10:25:39;;;;;;;0.10;0.10;;;2.30;99.90;12.80;163505.00;;;;4995085;28;20204;-77
2023/01/24 10:28:21;;;;;;;0.10;0.10;;;2.30;99.90;12.80;163505.00;;;;4996517;28;20207;-78
2023/01/24 10:31:05;;;;;;;0.10;0.10;;;2.30;99.90;12.80;163505.00;;;;4993307;28;20209;-78
2023/01/24 10:33:40;;;;;;;0.10;0.10;;;2.30;99.90;12.80;163505.00;;;;4994280;28;20208;-78
2023/01/24 10:36:17;;;;;;;0.10;0.10;;;2.40;99.90;12.80;163505.00;;;;4995203;28;20231;-77
2023/01/24 10:38:45;;;;;;;0.10;0.10;;;2.40;99.90;12.80;163505.00;;;;4988004;28;20378;-77
2023/01/24 10:41:24;;;;;;;0.10;0.10;;;2.40;99.90;12.80;163505.00;;;;4993093;28;20204;-77
2023/01/24 10:44:00;;;;;;;0.10;0.10;;;2.40;99.90;12.80;163505.00;;;;4987818;28;20284;-77
2023/01/24 10:47:14;;;;;;;0.10;0.10;;;2.40;99.90;12.80;163505.00;;;;4986367;28;20204;-78
2023/01/24 10:49:52;;;;;;;0.10;0.10;;;2.40;99.90;12.80;163505.00;;;;4963432;28;20232;-78
2023/01/24 10:52:23;;;;;;;0.00;0.00;;;2.40;99.90;12.80;163505.00;;;;4994684;28;20204;-78
2023/01/24 10:54:53;;;;;;;0.10;0.10;;;2.40;99.90;12.80;163505.00;;;;5001523;28;20211;-77
2023/01/24 10:57:36;;;;;;;0.10;0.10;;;2.50;99.90;12.80;163505.00;;;;4997250;28;20263;-77
2023/01/24 11:00:25;;;;;;;0.08;0.08;;;2.50;99.90;12.80;163505.00;;;;5017402;23;20263;-75
2023/01/24 11:02:56;;;;;;;0.10;0.10;;;2.50;99.90;12.80;163505.00;;;;5000907;28;20310;-75
2023/01/24 11:05:35;;;;;;;0.10;0.10;;;2.50;99.90;12.80;163505.00;;;;5004366;28;20196;-76
2023/01/24 11:08:04;;;;;;;0.05;0.05;;;2.60;99.90;12.80;163505.00;;;;5009439;28;20579;-75
2023/01/24 11:10:38;;;;;;;0.10;0.10;;;2.50;99.90;12.80;163505.00;;;;5005383;28;20220;-75
2023/01/24 11:13:30;;;;;;;0.10;0.10;;;2.50;99.90;12.80;163505.00;;;;5002803;28;20270;-75
2023/01/24 11:16:03;;;;;;;0.10;0.10;;;2.40;99.90;12.80;163505.00;;;;5007467;28;20199;-75
2023/01/24 11:18:34;;;;;;;0.10;0.10;;;2.40;99.90;12.80;163505.00;;;;5003064;28;20226;-75
2023/01/24 11:21:09;;;;;;;0.10;0.10;;;2.40;99.90;12.80;163505.00;;;;5000795;28;20200;-75
2023/01/24 11:23:37;;;;;;;0.10;0.10;;;2.40;99.90;12.80;163505.00;;;;5007359;28;20215;-76
2023/01/24 11:26:19;;;;;;;0.10;0.10;;;2.40;99.90;12.80;163505.00;;;;5003002;28;20255;-75
2023/01/24 11:28:58;;;;;;;0.10;0.10;;;2.40;99.90;12.80;163505.00;;;;5004249;28;20293;-75
2023/01/24 11:31:36;;;;;;;0.10;0.10;;;2.40;99.90;12.80;163505.00;;;;5002222;28;20200;-76
2023/01/24 11:34:46;;;;;;;0.10;0.10;;;2.40;99.90;12.80;163505.00;;;;4991872;28;20259;-75
2023/01/24 11:37:50;;;;;;;0.10;0.10;;;2.40;99.90;12.80;163505.00;;;;4999548;28;20261;-76
2023/01/24 11:40:34;;;;;;;0.10;0.10;;;2.40;99.90;12.80;163505.00;;;;4985833;28;20231;-75
2023/01/24 11:43:21;;;;;;;0.10;0.10;;;2.40;99.90;12.80;163505.00;;;;5001530;28;20260;-76
2023/01/24 11:46:25;;;;;;;0.10;0.10;;;2.40;99.90;12.80;163505.00;;;;5009502;28;20561;-75
2023/01/24 11:48:57;;;;;;;0.10;0.10;;;2.40;99.90;12.80;163505.00;;;;4981916;28;20708;-76
2023/01/24 11:51:44;;;;;;;0.10;0.10;;;2.40;99.90;12.80;163505.00;;;;5007889;28;20615;-75
2023/01/24 11:54:37;;;;;;;0.10;0.10;;;2.40;99.90;12.80;163505.00;;;;5006794;28;20257;-75
2023/01/24 11:57:23;;;;;;;0.10;0.10;;;2.50;99.90;12.80;163505.00;;;;5005071;28;20412;-76